Gulf Bridge — A8JM5 — position and weather

sailwx.info

Track history (hours):
 
Tides and Currents Weather Stations Pressure Air Temp Water Temp Dewpoint Dewpoint Depression Visibility Wind Speed Wind Dir Waves Ship Positions

Gulf Bridge

Last reported at 2017-Nov-19 20:19 UTC. Time now 2017-Nov-22 14:56 UTC.
Position N 34°03' E 134°58'.

Length 213 m; beam 32.2 m; draft 11.5 m.

Type: Cargo ship. MMSI: 636017628.

Date/timePositionNaut miles runAvg speedWind from/ knotsBaromVisibWave heightAir tempDewpointWater temp
2017-Nov-19 20:19N 34°03' E 134°58'617.8
2017-Nov-19 19:59N 34°09' E 134°58'713.9
2017-Nov-19 19:30N 34°15' E 134°59'714.1
2017-Nov-19 19:00N 34°22' E 135°00'1019.4
2017-Nov-19 18:30N 34°29' E 135°09'917.6
2017-Nov-19 18:00N 34°35' E 135°16'510.1
2017-Nov-19 17:30N 34°40' E 135°14'0 0.2
2017-Nov-19 16:49N 34°40' E 135°14'0 0.0
2017-Nov-19 16:25N 34°40' E 135°14'0 0.0
2017-Nov-19 15:55N 34°40' E 135°14'0 0.0
2017-Nov-19 15:25N 34°40' E 135°14'0 0.0
2017-Nov-19 14:55N 34°40' E 135°14'0 0.0
2017-Nov-19 14:25N 34°40' E 135°14'0 0.0
2017-Nov-19 13:43N 34°40' E 135°14'0 0.0
2017-Nov-19 13:25N 34°40' E 135°14'0 0.0
2017-Nov-19 12:55N 34°40' E 135°14'0 0.0
2017-Nov-19 12:25N 34°40' E 135°14'0 0.0
2017-Nov-19 11:55N 34°40' E 135°14'0 0.0
2017-Nov-19 11:25N 34°40' E 135°14'0 0.0
2017-Nov-19 10:55N 34°40' E 135°14'0 0.0
2017-Nov-19 10:25N 34°40' E 135°14'0 0.0
2017-Nov-19 09:43N 34°40' E 135°14'0 0.0
2017-Nov-19 09:25N 34°40' E 135°14'0 0.0
2017-Nov-19 08:55N 34°40' E 135°14'0 0.0
2017-Nov-19 08:25N 34°40' E 135°14'0 0.0
2017-Nov-19 07:55N 34°40' E 135°14'0 0.0
2017-Nov-19 07:25N 34°40' E 135°14'0 0.8
2017-Nov-19 07:00N 34°40' E 135°15'4 7.3
2017-Nov-19 06:30N 34°37' E 135°17'613.1
2017-Nov-19 06:00N 34°31' E 135°13'816.4
2017-Nov-19 05:30N 34°25' E 135°06'817.0
2017-Nov-19 05:00N 34°18' E 134°60'816.1
2017-Nov-19 04:30N 34°10' E 135°00'510.2
2017-Nov-19 04:00N 34°05' E 135°00'612.6
2017-Nov-19 03:29N 33°59' E 135°00'230 5.2
2017-Nov-17 06:54N 34°58' E 139°29'716.3
2017-Nov-17 06:30N 35°02' E 139°36'816.6
2017-Nov-17 06:00N 35°07' E 139°44'612.9
2017-Nov-17 05:31N 35°13' E 139°46'611.3
2017-Nov-17 05:01N 35°18' E 139°44'613.0
2017-Nov-17 04:31N 35°25' E 139°44'815.7
2017-Nov-17 04:01N 35°30' E 139°51'611.8
2017-Nov-17 03:30N 35°35' E 139°48'2 0.7
2017-Nov-17 00:54N 35°37' E 139°47'0 0.0
2017-Nov-16 17:24N 35°37' E 139°47'0 0.0
2017-Nov-16 16:57N 35°37' E 139°47'0 0.0
2017-Nov-16 16:24N 35°37' E 139°47'0 0.0
2017-Nov-16 16:00N 35°37' E 139°47'0 0.0
2017-Nov-16 15:30N 35°37' E 139°47'0 0.0
2017-Nov-16 15:00N 35°37' E 139°47'0 0.0
2017-Nov-16 14:30N 35°37' E 139°47'0 0.0
2017-Nov-16 13:48N 35°37' E 139°47'0 0.0
2017-Nov-16 13:12N 35°37' E 139°47'0 0.0
2017-Nov-16 12:54N 35°37' E 139°47'0 0.0
2017-Nov-16 12:30N 35°37' E 139°47'0 0.0
2017-Nov-16 12:00N 35°37' E 139°47'0 0.0
2017-Nov-16 11:30N 35°37' E 139°47'0 0.0
2017-Nov-16 11:00N 35°37' E 139°47'0 0.1
2017-Nov-16 10:07N 35°37' E 139°47'0 0.6
2017-Nov-16 10:00N 35°37' E 139°47'3 6.2
2017-Nov-16 09:30N 35°34' E 139°49'3 5.4
2017-Nov-16 09:00N 35°33' E 139°52'0 0.8
2017-Nov-16 08:29N 35°33' E 139°53'0 0.1
2017-Nov-16 06:23N 35°33' E 139°53'0 0.0
2017-Nov-16 05:59N 35°33' E 139°53'0 0.0
2017-Nov-16 05:29N 35°33' E 139°53'0 0.0
2017-Nov-16 04:53N 35°33' E 139°53'0 0.1
2017-Nov-16 04:29N 35°33' E 139°53'0 0.0
2017-Nov-16 03:59N 35°33' E 139°53'0 0.1
2017-Nov-16 03:29N 35°33' E 139°53'0 0.0
2017-Nov-16 02:59N 35°33' E 139°53'0 0.0
2017-Nov-15 21:44N 35°33' E 139°53'0 0.2
2017-Nov-15 21:29N 35°33' E 139°53'0 0.1
2017-Nov-15 20:38N 35°33' E 139°53'0 0.2
2017-Nov-15 20:27N 35°33' E 139°53'3 7.1
2017-Nov-15 20:00N 35°30' E 139°52'612.1
2017-Nov-15 19:30N 35°26' E 139°46'4 8.8
2017-Nov-15 19:00N 35°27' E 139°41'0 0.5
2017-Nov-15 18:30N 35°26' E 139°41'0 0.0
2017-Nov-15 18:00N 35°26' E 139°41'0 0.0
2017-Nov-15 17:30N 35°26' E 139°41'0 0.0
2017-Nov-15 17:00N 35°26' E 139°41'0 0.0
2017-Nov-15 16:27N 35°26' E 139°41'0 0.0
2017-Nov-15 16:00N 35°26' E 139°41'0 0.0
2017-Nov-15 15:30N 35°26' E 139°41'0 0.0
2017-Nov-15 15:00N 35°26' E 139°41'0 0.0
2017-Nov-15 14:30N 35°26' E 139°41'0 0.0
2017-Nov-15 14:00N 35°26' E 139°41'0 0.0
2017-Nov-15 13:30N 35°26' E 139°41'0 0.0
2017-Nov-15 13:00N 35°26' E 139°41'0 0.0
2017-Nov-15 12:30N 35°26' E 139°41'0 0.0
2017-Nov-15 12:00N 35°26' E 139°41'0 0.0
2017-Nov-15 11:30N 35°26' E 139°41'0 0.0
2017-Nov-15 11:00N 35°26' E 139°41'0 0.0
2017-Nov-15 10:30N 35°26' E 139°41'0 0.0
2017-Nov-15 10:00N 35°26' E 139°41'0 0.0
2017-Nov-15 09:30N 35°26' E 139°41'0 0.0
2017-Nov-15 09:00N 35°26' E 139°41'0 0.0
2017-Nov-15 08:30N 35°26' E 139°41'0 0.0
2017-Nov-15 08:00N 35°26' E 139°41'0 0.0
2017-Nov-15 07:30N 35°26' E 139°41'0 0.0
2017-Nov-15 07:00N 35°26' E 139°41'0 0.0
2017-Nov-15 06:27N 35°26' E 139°41'0 0.1
2017-Nov-15 06:00N 35°26' E 139°41'2 3.1
2017-Nov-15 05:30N 35°26' E 139°43'4 7.9
2017-Nov-15 05:00N 35°22' E 139°43'510.1
2017-Nov-15 04:30N 35°17' E 139°45'611.6
2017-Nov-15 04:00N 35°11' E 139°47'5 9.9
2017-Nov-15 03:30N 35°07' E 139°46'510.7
2017-Nov-15 03:00N 35°02' E 139°43'612.7
2017-Nov-15 02:30N 34°56' E 139°41'612.7
2017-Nov-15 02:00N 34°50' E 139°38'712.9
2017-Nov-15 01:26N 34°43' E 139°35'  
Track history (hours):
 
Tides and Currents Weather Stations Pressure Air Temp Water Temp Dewpoint Dewpoint Depression Visibility Wind Speed Wind Dir Waves Ship Positions

Gulf Bridge

Last reported at 2017-Nov-19 20:19 UTC. Time now 2017-Nov-22 14:56 UTC.
Position N 34°03' E 134°58'.

Length 213 m; beam 32.2 m; draft 11.5 m.

Type: Cargo ship. MMSI: 636017628.

Date/timePositionNaut miles runAvg speedWind from/ knotsBaromVisibWave heightAir tempDewpointWater temp
2017-Nov-19 20:19N 34°03' E 134°58'617.8
2017-Nov-19 19:59N 34°09' E 134°58'713.9
2017-Nov-19 19:30N 34°15' E 134°59'714.1
2017-Nov-19 19:00N 34°22' E 135°00'1019.4
2017-Nov-19 18:30N 34°29' E 135°09'917.6
2017-Nov-19 18:00N 34°35' E 135°16'510.1
2017-Nov-19 17:30N 34°40' E 135°14'0 0.2
2017-Nov-19 16:49N 34°40' E 135°14'0 0.0
2017-Nov-19 16:25N 34°40' E 135°14'0 0.0
2017-Nov-19 15:55N 34°40' E 135°14'0 0.0
2017-Nov-19 15:25N 34°40' E 135°14'0 0.0
2017-Nov-19 14:55N 34°40' E 135°14'0 0.0
2017-Nov-19 14:25N 34°40' E 135°14'0 0.0
2017-Nov-19 13:43N 34°40' E 135°14'0 0.0
2017-Nov-19 13:25N 34°40' E 135°14'0 0.0
2017-Nov-19 12:55N 34°40' E 135°14'0 0.0
2017-Nov-19 12:25N 34°40' E 135°14'0 0.0
2017-Nov-19 11:55N 34°40' E 135°14'0 0.0
2017-Nov-19 11:25N 34°40' E 135°14'0 0.0
2017-Nov-19 10:55N 34°40' E 135°14'0 0.0
2017-Nov-19 10:25N 34°40' E 135°14'0 0.0
2017-Nov-19 09:43N 34°40' E 135°14'0 0.0
2017-Nov-19 09:25N 34°40' E 135°14'0 0.0
2017-Nov-19 08:55N 34°40' E 135°14'0 0.0
2017-Nov-19 08:25N 34°40' E 135°14'0 0.0
2017-Nov-19 07:55N 34°40' E 135°14'0 0.0
2017-Nov-19 07:25N 34°40' E 135°14'0 0.8
2017-Nov-19 07:00N 34°40' E 135°15'4 7.3
2017-Nov-19 06:30N 34°37' E 135°17'613.1
2017-Nov-19 06:00N 34°31' E 135°13'816.4
2017-Nov-19 05:30N 34°25' E 135°06'817.0
2017-Nov-19 05:00N 34°18' E 134°60'816.1
2017-Nov-19 04:30N 34°10' E 135°00'510.2
2017-Nov-19 04:00N 34°05' E 135°00'612.6
2017-Nov-19 03:29N 33°59' E 135°00'230 5.2
2017-Nov-17 06:54N 34°58' E 139°29'716.3
2017-Nov-17 06:30N 35°02' E 139°36'816.6
2017-Nov-17 06:00N 35°07' E 139°44'612.9
2017-Nov-17 05:31N 35°13' E 139°46'611.3
2017-Nov-17 05:01N 35°18' E 139°44'613.0
2017-Nov-17 04:31N 35°25' E 139°44'815.7
2017-Nov-17 04:01N 35°30' E 139°51'611.8
2017-Nov-17 03:30N 35°35' E 139°48'2 0.7
2017-Nov-17 00:54N 35°37' E 139°47'0 0.0
2017-Nov-16 17:24N 35°37' E 139°47'0 0.0
2017-Nov-16 16:57N 35°37' E 139°47'0 0.0
2017-Nov-16 16:24N 35°37' E 139°47'0 0.0
2017-Nov-16 16:00N 35°37' E 139°47'0 0.0
2017-Nov-16 15:30N 35°37' E 139°47'0 0.0
2017-Nov-16 15:00N 35°37' E 139°47'0 0.0
2017-Nov-16 14:30N 35°37' E 139°47'0 0.0
2017-Nov-16 13:48N 35°37' E 139°47'0 0.0
2017-Nov-16 13:12N 35°37' E 139°47'0 0.0
2017-Nov-16 12:54N 35°37' E 139°47'0 0.0
2017-Nov-16 12:30N 35°37' E 139°47'0 0.0
2017-Nov-16 12:00N 35°37' E 139°47'0 0.0
2017-Nov-16 11:30N 35°37' E 139°47'0 0.0
2017-Nov-16 11:00N 35°37' E 139°47'0 0.1
2017-Nov-16 10:07N 35°37' E 139°47'0 0.6
2017-Nov-16 10:00N 35°37' E 139°47'3 6.2
2017-Nov-16 09:30N 35°34' E 139°49'3 5.4
2017-Nov-16 09:00N 35°33' E 139°52'0 0.8
2017-Nov-16 08:29N 35°33' E 139°53'0 0.1
2017-Nov-16 06:23N 35°33' E 139°53'0 0.0
2017-Nov-16 05:59N 35°33' E 139°53'0 0.0
2017-Nov-16 05:29N 35°33' E 139°53'0 0.0
2017-Nov-16 04:53N 35°33' E 139°53'0 0.1
2017-Nov-16 04:29N 35°33' E 139°53'0 0.0
2017-Nov-16 03:59N 35°33' E 139°53'0 0.1
2017-Nov-16 03:29N 35°33' E 139°53'0 0.0
2017-Nov-16 02:59N 35°33' E 139°53'0 0.0
2017-Nov-15 21:44N 35°33' E 139°53'0 0.2
2017-Nov-15 21:29N 35°33' E 139°53'0 0.1
2017-Nov-15 20:38N 35°33' E 139°53'0 0.2
2017-Nov-15 20:27N 35°33' E 139°53'3 7.1
2017-Nov-15 20:00N 35°30' E 139°52'612.1
2017-Nov-15 19:30N 35°26' E 139°46'4 8.8
2017-Nov-15 19:00N 35°27' E 139°41'0 0.5
2017-Nov-15 18:30N 35°26' E 139°41'0 0.0
2017-Nov-15 18:00N 35°26' E 139°41'0 0.0
2017-Nov-15 17:30N 35°26' E 139°41'0 0.0
2017-Nov-15 17:00N 35°26' E 139°41'0 0.0
2017-Nov-15 16:27N 35°26' E 139°41'0 0.0
2017-Nov-15 16:00N 35°26' E 139°41'0 0.0
2017-Nov-15 15:30N 35°26' E 139°41'0 0.0
2017-Nov-15 15:00N 35°26' E 139°41'0 0.0
2017-Nov-15 14:30N 35°26' E 139°41'0 0.0
2017-Nov-15 14:00N 35°26' E 139°41'0 0.0
2017-Nov-15 13:30N 35°26' E 139°41'0 0.0
2017-Nov-15 13:00N 35°26' E 139°41'0 0.0
2017-Nov-15 12:30N 35°26' E 139°41'0 0.0
2017-Nov-15 12:00N 35°26' E 139°41'0 0.0
2017-Nov-15 11:30N 35°26' E 139°41'0 0.0
2017-Nov-15 11:00N 35°26' E 139°41'0 0.0
2017-Nov-15 10:30N 35°26' E 139°41'0 0.0
2017-Nov-15 10:00N 35°26' E 139°41'0 0.0
2017-Nov-15 09:30N 35°26' E 139°41'0 0.0
2017-Nov-15 09:00N 35°26' E 139°41'0 0.0
2017-Nov-15 08:30N 35°26' E 139°41'0 0.0
2017-Nov-15 08:00N 35°26' E 139°41'0 0.0
2017-Nov-15 07:30N 35°26' E 139°41'0 0.0
2017-Nov-15 07:00N 35°26' E 139°41'0 0.0
2017-Nov-15 06:27N 35°26' E 139°41'0 0.1
2017-Nov-15 06:00N 35°26' E 139°41'2 3.1
2017-Nov-15 05:30N 35°26' E 139°43'4 7.9
2017-Nov-15 05:00N 35°22' E 139°43'510.1
2017-Nov-15 04:30N 35°17' E 139°45'611.6
2017-Nov-15 04:00N 35°11' E 139°47'5 9.9
2017-Nov-15 03:30N 35°07' E 139°46'510.7
2017-Nov-15 03:00N 35°02' E 139°43'612.7
2017-Nov-15 02:30N 34°56' E 139°41'612.7
2017-Nov-15 02:00N 34°50' E 139°38'712.9
2017-Nov-15 01:26N 34°43' E 139°35'  

Dump ship's entire track history